Tiempo atmosférico en la estación meteorológica de Gotarrendura , Ávila (920 m.)



Fecha
DESCASC
Temp. máxima en grados centígrados (hora)
DESCASC
Temp. mínima en grados centígrados (hora)
DESCASC
Temp. media en grados centígrados
DESCASC
Racha de viento máxima en m/sg (hora)
DESCASC
Velocidad máxima media en intervalos de 10 minutos(hora)
DESCASC
Precipitaciones diarias en mm
DESCASC
Precipitaciones de 00:00 a 06:00 en mm
DESCASC
Precipitaciones de 06:00 a 12:00 en mm
DESCASC
Precipitaciones de 12:00 a 18:00 en mm
DESCASC
Precipitaciones de 18:00 a 24:00 en mm
DESCASC
06-07-2020 34.1 (16:30) 14.4 (05:40) 24.2 8.06 (22:10) 5.83 (22:10) 0 0 0 0 0
05-07-2020 34.2 (15:50) 10.7 (06:40) 22.5 7.78 (15:30) 4.44 (13:50) 0 0 0 0 0
04-07-2020 31.1 (16:20) 9.5 (07:00) 20.3 7.78 (15:00) 3.89 (16:00) 0 0 0 0 0
03-07-2020 28.3 (17:00) 7.5 (07:00) 17.9 7.22 (18:10) 3.89 (20:50) 0 0 0 0 0
02-07-2020 27.6 (16:40) 13.9 (00:00) 20.8 15.28 (18:40) 7.22 (19:30) 0 0 0 0 0
01-07-2020 30.8 (16:30) 17.8 (00:00) 24.3 13.61 (17:00) 8.06 (16:00) 0 0 0 0 0
30-06-2020 33.8 (16:30) 14.5 (00:00) 24.1 11.94 (19:00) 8.89 (20:00) 0 0 0 0 0
29-06-2020 32.9 (16:20) 13.6 (00:00) 23.3 9.17 (16:30) 5.28 (16:30) 0 0 0 0 0
28-06-2020 30.5 (16:40) 12.4 (00:00) 21.4 9.17 (18:40) 4.72 (19:10) 0 0 0 0 0
27-06-2020 27.7 (17:20) 12.2 (00:00) 20 10.28 (16:50) 6.11 (19:00) 0 0 0 0 0
26-06-2020 27.6 (16:20) 12.1 (00:00) 19.9 12.5 (17:40) 8.06 (16:50) 0 0 0 0 0
25-06-2020 31.7 (13:00) 13.4 (00:00) 22.6 10.56 (15:50) 6.39 (15:50) 0 0 0 0 0
24-06-2020 31.9 (15:30) 17.6 (00:00) 24.8 10.83 (15:40) 6.11 (14:40) 3.4 3.4 0 0 0
23-06-2020 35.4 (14:50) 13.8 (00:00) 24.6 16.67 (20:10) 7.5 (20:10) 2.2 0 0 0 2.2
22-06-2020 33.4 (16:40) 9.9 (00:00) 21.7 12.78 (16:50) 4.72 (20:20) 0 0 0 0 0
21-06-2020 30.2 (17:40) 11.3 (00:00) 20.8 8.61 (18:00) 4.17 (17:10) 0 0 0 0 0
20-06-2020 29.4 (17:00) 11.8 (00:00) 20.6 10.56 (16:30) 5.83 (20:40) 0 0 0 0 0
19-06-2020 27 (17:10) 9.6 (00:00) 18.3 10.83 (16:20) 6.11 (18:10) 0 0 0 0 0
18-06-2020 24.9 (15:10) 7.6 (00:00) 16.2 10.28 (18:10) 5.83 (18:10) 0 0 0 0 0
17-06-2020 22.9 (17:10) 9.4 (00:00) 16.1 8.61 (18:40) 5 (17:20) 0 0 0 0 0
16-06-2020 21.6 (18:10) 10.9 (00:00) 16.3 13.33 (20:10) 9.17 (18:10) 0.4 0.2 0 0.2 0
15-06-2020 23.6 (17:20) 10.9 (00:00) 17.3 10.56 (18:40) 7.22 (18:50) 0 0 0 0 0
14-06-2020 22.1 (17:10) 7.6 (00:00) 14.9 12.5 (17:40) 6.67 (17:50) 0 0 0 0 0
13-06-2020 20.2 (17:50) 6.3 (00:00) 13.3 10.56 (17:40) 6.39 (18:40) 0 0 0 0 0
12-06-2020 17.1 (16:20) 6.1 (00:00) 11.6 15 (16:10) 10.28 (16:30) 1.8 0 0 0 1.8
11-06-2020 20.3 (17:00) 9.8 (00:00) 15 15.83 (19:50) 11.11 (19:10) 0 0 0 0 0
10-06-2020 25 (16:40) 4.9 (00:00) 15 10 (15:30) 6.11 (20:10) 0 0 0 0 0
09-06-2020 20.6 (15:40) 3.3 (00:00) 12 8.61 (13:50) 4.72 (00:40) 0 0 0 0 0

Gráficas

Temp. máximas Temp. mínimas Temp. medias Precipitaciones Rachas de viento máximas Velocidades máximas media en intervalos de 10 minutos

Datos horarios

Fecha y hora oficial Temperatura (ºC) Velocidad del viento (km/h) Dirección del viento Racha (km/h) Dirección de racha Precipitación (mm) Presión (hPa) Tendencia (hPa) Humedad (%)
2020-07-08 23:00:00 23 21 Este 37 Este 0 -- -- 46
2020-07-08 22:00:00 25.8 26 Sudeste 41 Sudeste 0 -- -- 41
2020-07-08 21:00:00 26.3 24 Sudeste 41 Sudeste 0 -- -- 36
2020-07-08 20:00:00 26.7 15 Sudeste 57 Sudeste 0 -- -- 33
2020-07-08 19:00:00 31.2 18 Este 35 Este 0 -- -- 29
2020-07-08 18:00:00 29.7 20 Este 49 Este 0 -- -- 31
2020-07-08 17:00:00 34.2 17 Sudeste 41 Sudeste 0 -- -- 23
2020-07-08 16:00:00 33.8 23 Sudeste 48 Sudeste 0 -- -- 23
2020-07-08 15:00:00 34.1 28 Sudeste 48 Sudeste 0 -- -- 21
2020-07-08 14:00:00 32.7 22 Sudeste 47 Sudeste 0 -- -- 21
2020-07-08 13:00:00 32.5 26 Sudeste 50 Sudeste -- -- -- 22
2020-07-08 12:00:00 32.7 26 Sudeste 44 Sudeste 0 -- -- 21
2020-07-08 11:00:00 32.4 20 Sudeste 38 Sudeste 0 -- -- 22
2020-07-08 10:00:00 30 21 Sudeste 34 Sudeste 0 -- -- 25
2020-07-08 09:00:00 24.3 3 Este 17 Este 0 -- -- 38
2020-07-08 08:00:00 23.2 16 Sudeste 36 Este 0 -- -- 39
2020-07-08 07:00:00 24.9 24 Este 51 Sur 0 -- -- 37
2020-07-08 06:00:00 23 8 Sudeste 34 Oeste 0 -- -- 39
2020-07-08 05:00:00 25.7 14 Sur 33 Sur 0 -- -- 24
2020-07-08 04:00:00 21.9 6 Sur 21 Este 0 -- -- 32
2020-07-08 03:00:00 21.8 8 Sur 15 Sur 0 -- -- 36
2020-07-08 02:00:00 22.2 9 Sudeste 15 Sudeste 0 -- -- 30
2020-07-08 01:00:00 22.3 5 Este 12 Nordeste 0 -- -- 29
2020-07-08 00:00:00 24.2 8 Sur 16 Sur 0 -- -- 27
2020-07-07 23:00:00 25.8 12 Sur 18 Sur 0 -- -- 26
2020-07-07 22:00:00 28.6 8 Sudoeste 19 Sudoeste 0 -- -- 22
2020-07-07 21:00:00 32.4 11 Sudoeste 31 Oeste 0 -- -- 18
2020-07-07 20:00:00 34 20 Sudoeste 35 Oeste 0 -- -- 18
2020-07-07 19:00:00 34.7 21 Sudoeste 54 Oeste 0 -- -- 15
2020-07-07 18:00:00 35.4 19 Sudoeste 47 Sudoeste 0 -- -- 15
2020-07-07 17:00:00 36.1 22 Oeste 41 Oeste 0 -- -- 15
2020-07-07 16:00:00 35.5 16 Oeste 33 Oeste 0 -- -- 21
2020-07-07 15:00:00 35 14 Oeste 32 Oeste 0 -- -- 22
2020-07-07 14:00:00 34.5 12 Oeste 32 Oeste 0 -- -- 23
2020-07-07 13:00:00 34.3 7 Noroeste 22 Oeste 0 -- -- 27
2020-07-07 12:00:00 33.6 6 Noroeste 17 Nordeste 0 -- -- 30
2020-07-07 11:00:00 30.6 10 Nordeste 16 Nordeste 0 -- -- 34
2020-07-07 10:00:00 25.7 8 Nordeste 12 Nordeste 0 -- -- 42
2020-07-07 09:00:00 20.4 0 Calma 4 Nordeste 0 -- -- 52
2020-07-07 08:00:00 15.9 0 Calma 4 Sudoeste 0 -- -- 61
2020-07-07 07:00:00 13.2 0 Calma 3 Noroeste 0 -- -- 64
2020-07-07 06:00:00 14.1 2 Sudoeste 4 Sudoeste 0 -- -- 62
2020-07-07 05:00:00 14.5 2 Sudoeste 5 Sur 0 -- -- 62
2020-07-07 04:00:00 15.3 3 Este 5 Sur 0 -- -- 56
2020-07-07 03:00:00 16.4 0 Calma 3 Sudeste 0 -- -- 54
2020-07-07 02:00:00 17.8 0 Calma 3 Sudoeste 0 -- -- 50
2020-07-07 01:00:00 19.9 0 Calma 7 Nordeste 0 -- -- 47
2020-07-07 00:00:00 21.7 3 Nordeste 17 Nordeste 0 -- -- 47
2020-07-06 23:00:00 23.5 12 Nordeste 29 Norte 0 -- -- 44
2020-07-06 22:00:00 26.3 19 Norte 29 Norte 0 -- -- 40
2020-07-06 21:00:00 29.2 19 Norte 25 Norte 0 -- -- 37
2020-07-06 20:00:00 31.1 15 Norte 25 Noroeste 0 -- -- 33
2020-07-06 19:00:00 32.3 11 Noroeste 24 Norte 0 -- -- 32
2020-07-06 18:00:00 33.3 11 Noroeste 23 Oeste 0 -- -- 29
2020-07-06 17:00:00 34.1 9 Noroeste 27 Noroeste 0 -- -- 27
2020-07-06 16:00:00 33.4 12 Noroeste 26 Norte 0 -- -- 29
2020-07-06 15:00:00 33.7 13 Noroeste 27 Noroeste 0 -- -- 29
2020-07-06 14:00:00 32.8 9 Noroeste 24 Noroeste 0 -- -- 29
2020-07-06 13:00:00 31.9 7 Noroeste 17 Noroeste 0 -- -- 33
2020-07-06 12:00:00 29.6 8 Noroeste 15 Noroeste 0 -- -- 36
2020-07-06 11:00:00 27.2 4 Noroeste 9 Noroeste 0 -- -- 40
2020-07-06 10:00:00 24 3 Nordeste 6 Norte 0 -- -- 47
2020-07-06 09:00:00 21 3 Noroeste 7 Noroeste 0 -- -- 53
2020-07-06 08:00:00 16.8 3 Sur 9 Sudoeste 0 -- -- 59
2020-07-06 07:00:00 14.4 6 Sudoeste 9 Sur 0 -- -- 62
2020-07-06 06:00:00 14.4 6 Sudoeste 8 Sur 0 -- -- 57
2020-07-06 05:00:00 15.1 2 Sudoeste 5 Sudeste 0 -- -- 53
2020-07-06 04:00:00 16.4 3 Sur 10 Sur 0 -- -- 50
2020-07-06 03:00:00 17 8 Sur 9 Sur 0 -- -- 46
2020-07-06 02:00:00 18.2 6 Sur 8 Sur 0 -- -- 42
2020-07-06 01:00:00 19.4 3 Sudeste 10 Sur 0 -- -- 39
2020-07-06 00:00:00 20.9 7 Sur 10 Sudoeste 0 -- -- 35
2020-07-05 23:00:00 23.6 2 Sur 8 Noroeste 0 -- -- 31
2020-07-05 22:00:00 27.4 6 Noroeste 15 Norte 0 -- -- 25
2020-07-05 21:00:00 29.9 10 Norte 22 Noroeste -- -- -- 22
2020-07-05 20:00:00 31.4 13 Noroeste 25 Noroeste 0 -- -- 21
2020-07-05 19:00:00 32.4 10 Noroeste 27 Noroeste 0 -- -- 20
2020-07-05 18:00:00 33.3 14 Oeste 28 Oeste 0 -- -- 20
2020-07-05 17:00:00 33.5 9 Oeste 27 Oeste 0 -- -- 20
2020-07-05 16:00:00 33.9 13 Noroeste 28 Noroeste 0 -- -- 19
2020-07-05 15:00:00 34.1 12 Norte 27 Noroeste 0 -- -- 18
2020-07-05 14:00:00 33.4 12 Noroeste 26 Noroeste 0 -- -- 18
2020-07-05 13:00:00 32.1 7 Oeste 20 Nordeste 0 -- -- 18
2020-07-05 12:00:00 31.1 10 Norte 18 Norte 0 -- -- 19
2020-07-05 11:00:00 29.7 5 Norte 12 Norte 0 -- -- 21
2020-07-05 10:00:00 26.3 4 Norte 8 Noroeste 0 -- -- 26
2020-07-05 09:00:00 21.8 3 Nordeste 4 Nordeste 0 -- -- 31
2020-07-05 08:00:00 16.2 0 Calma 12 Sudeste 0 -- -- 48
2020-07-05 07:00:00 10.8 4 Sudeste 7 Sudeste 0 -- -- 55
2020-07-05 06:00:00 11.1 0 Calma 4 Sudeste 0 -- -- 54
2020-07-05 05:00:00 11.8 2 Sur 4 Sudeste 0 -- -- 51
2020-07-05 04:00:00 13 2 Sur 6 Sur 0 -- -- 46
2020-07-05 03:00:00 14.3 5 Sudoeste 6 Sudoeste 0 -- -- 45
2020-07-05 02:00:00 17 2 Sur 12 Este 0 -- -- 40
2020-07-05 01:00:00 18.1 12 Nordeste 20 Nordeste 0 -- -- 37
2020-07-05 00:00:00 17.1 3 Sudeste 6 Sudoeste 0 -- -- 34
2020-07-04 23:00:00 20.9 0 Calma 11 Norte 0 -- -- 30
2020-07-04 22:00:00 24.8 4 Norte 16 Noroeste 0 -- -- 24
2020-07-04 21:00:00 28.2 9 Noroeste 20 Noroeste 0 -- -- 20
2020-07-04 20:00:00 28.9 10 Norte 20 Noroeste 0 -- -- 19
2020-07-04 19:00:00 29.7 9 Noroeste 20 Noroeste 0 -- -- 18
2020-07-04 18:00:00 30.7 4 Norte 25 Norte 0 -- -- 18
2020-07-04 17:00:00 30.8 7 Oeste 24 Noroeste 0 -- -- 18
2020-07-04 16:00:00 30.6 14 Noroeste 23 Norte 0 -- -- 21
2020-07-04 15:00:00 30.5 13 Noroeste 28 Noroeste 0 -- -- 22
2020-07-04 14:00:00 29.4 10 Norte 23 Norte 0 -- -- 25
2020-07-04 13:00:00 27.6 9 Norte 24 Norte 0 -- -- 27
2020-07-04 12:00:00 26.5 10 Norte 21 Nordeste 0 -- -- 28
2020-07-04 11:00:00 25 8 Nordeste 14 Nordeste 0 -- -- 29
2020-07-04 10:00:00 23 4 Nordeste 10 Norte 0 -- -- 31
2020-07-04 09:00:00 18.7 0 Calma 5 Sur 0 -- -- 39
2020-07-04 08:00:00 13.6 0 Calma 7 Nordeste 0 -- -- 53
2020-07-04 07:00:00 9.5 0 Calma 8 Noroeste 0 -- -- 59
2020-07-04 06:00:00 11.3 3 Sudeste 8 Sur 0 -- -- 52
2020-07-04 05:00:00 11.1 3 Sur 8 Sur 0 -- -- 55
2020-07-04 04:00:00 12.1 4 Sur 9 Sur 0 -- -- 52
2020-07-04 03:00:00 12.7 4 Sur 11 Sur 0 -- -- 49
2020-07-04 02:00:00 12.9 4 Sur 7 Sudeste 0 -- -- 49
2020-07-04 01:00:00 15.9 0 Calma 16 Nordeste 0 -- -- 43
2020-07-04 00:00:00 17.5 9 Nordeste 13 Nordeste 0 -- -- 40
2020-07-03 23:00:00 19.6 5 Norte 9 Noroeste 0 -- -- 34
2020-07-03 22:00:00 22.6 5 Noroeste 18 Noroeste 0 -- -- 29
2020-07-03 21:00:00 25.3 13 Noroeste 21 Noroeste 0 -- -- 26
2020-07-03 20:00:00 26.7 12 Noroeste 26 Noroeste 0 -- -- 25
2020-07-03 19:00:00 27 9 Norte 26 Norte 0 -- -- 22
2020-07-03 18:00:00 27.8 8 Noroeste 22 Oeste 0 -- -- 22
2020-07-03 17:00:00 28.3 8 Noroeste 21 Noroeste 0 -- -- 24
2020-07-03 16:00:00 27.3 9 Oeste 21 Noroeste 0 -- -- 25
2020-07-03 15:00:00 27 4 Noroeste 20 Noroeste 0 -- -- 28
2020-07-03 14:00:00 25.5 9 Nordeste 20 Norte 0 -- -- 31
2020-07-03 13:00:00 24.1 7 Norte 18 Norte 0 -- -- 37
2020-07-03 12:00:00 21.6 7 Norte 15 Noroeste 0 -- -- 47
2020-07-03 11:00:00 19.2 5 Norte 13 Norte 0 -- -- 54
2020-07-03 10:00:00 16.4 4 Nordeste 8 Nordeste 0 -- -- 63
2020-07-03 09:00:00 14.1 3 Nordeste 7 Norte 0 -- -- 71
2020-07-03 08:00:00 9.7 4 Sur 7 Sudoeste 0 -- -- 81
2020-07-03 07:00:00 7.5 5 Sur 7 Sudoeste 0 -- -- 84
2020-07-03 06:00:00 8.5 3 Sudoeste 6 Sudoeste 0 -- -- 84
2020-07-03 05:00:00 9.3 3 Sudoeste 4 Norte 0 -- -- 76
2020-07-03 04:00:00 10.6 0 Calma 6 Noroeste 0 -- -- 77
2020-07-03 03:00:00 11.5 2 Noroeste 5 Sudoeste 0 -- -- 63
2020-07-03 02:00:00 13.5 4 Sudoeste 13 Sudoeste 0 -- -- 55
2020-07-03 01:00:00 15.5 4 Sudoeste 13 Oeste 0 -- -- 49
2020-07-03 00:00:00 16.5 5 Oeste 10 Noroeste 0 -- -- 46
2020-07-02 23:00:00 18.5 6 Oeste 18 Oeste 0 -- -- 42
2020-07-02 22:00:00 21.5 13 Oeste 35 Oeste 0 -- -- 36
2020-07-02 21:00:00 23.9 19 Oeste 37 Oeste 0 -- -- 29
2020-07-02 20:00:00 25.4 24 Oeste 40 Oeste 0 -- -- 31
2020-07-02 19:00:00 25.6 19 Oeste 55 Oeste 0 -- -- 32
2020-07-02 18:00:00 26.9 20 Oeste 38 Oeste 0 -- -- 33
2020-07-02 17:00:00 27.4 23 Oeste 40 Oeste 0 -- -- 33
2020-07-02 16:00:00 26.4 17 Oeste 43 Oeste 0 -- -- 37
2020-07-02 15:00:00 27 21 Oeste 36 Oeste 0 -- -- 32
2020-07-02 14:00:00 25.8 17 Oeste 31 Oeste 0 -- -- 34
2020-07-02 13:00:00 25 11 Oeste 26 Oeste 0 -- -- 41
2020-07-02 12:00:00 24 8 Oeste 20 Oeste 0 -- -- 48
2020-07-02 11:00:00 22.2 8 Oeste 17 Oeste 0 -- -- 53
2020-07-02 10:00:00 20.4 8 Noroeste 19 Oeste 0 -- -- 60
2020-07-02 09:00:00 18 14 Oeste 22 Oeste 0 -- -- 67
2020-07-02 08:00:00 15.7 5 Sudoeste 12 Sudoeste 0 -- -- 72
2020-07-02 07:00:00 13.9 8 Sudoeste 11 Sur 0 -- -- 76
2020-07-02 06:00:00 14.2 9 Sudoeste 12 Sudoeste 0 -- -- 74
2020-07-02 05:00:00 14.9 9 Sudoeste 12 Sudoeste 0 -- -- 69
2020-07-02 04:00:00 16.1 9 Sudoeste 14 Sudoeste 0 -- -- 64
2020-07-02 03:00:00 17.5 5 Sudoeste 12 Oeste 0 -- -- 58
2020-07-02 02:00:00 19.1 7 Sudoeste 20 Sudoeste 0 -- -- 51
2020-07-02 01:00:00 19.3 8 Sudoeste 15 Sudoeste 0 -- -- 48
2020-07-02 00:00:00 20 5 Sudoeste 12 Oeste 0 -- -- 42
2020-07-01 23:00:00 21.4 12 Oeste 17 Oeste 0 -- -- 37
2020-07-01 22:00:00 24.8 12 Oeste 28 Oeste 0 -- -- 32
2020-07-01 21:00:00 27.3 22 Oeste 34 Oeste 0 -- -- 32
2020-07-01 20:00:00 28.9 21 Oeste 40 Oeste 0 -- -- 29
2020-07-01 19:00:00 29.4 27 Oeste 44 Oeste 0 -- -- 26
2020-07-01 18:00:00 30.5 15 Noroeste 42 Oeste 0 -- -- 25
2020-07-01 17:00:00 30.8 28 Oeste 49 Oeste 0 -- -- 25
2020-07-01 16:00:00 30.4 29 Oeste 40 Oeste 0 -- -- 25
2020-07-01 15:00:00 30 21 Oeste 34 Oeste 0 -- -- 30
2020-07-01 14:00:00 28.7 20 Oeste 38 Oeste 0 -- -- 38
2020-07-01 13:00:00 27.9 15 Oeste 31 Oeste 0 -- -- 41
2020-07-01 12:00:00 26 13 Oeste 25 Oeste 0 -- -- 51
2020-07-01 11:00:00 24.6 11 Oeste 23 Sudoeste 0 -- -- 57
2020-07-01 10:00:00 22.9 12 Oeste 23 Oeste 0 -- -- 64
2020-07-01 09:00:00 20.7 17 Oeste 23 Oeste 0 -- -- 70
2020-07-01 08:00:00 19.9 4 Norte 7 Sudoeste 0 -- -- 65
2020-07-01 07:00:00 18.3 5 Sudoeste 14 Oeste 0 -- -- 69
2020-07-01 06:00:00 19 4 Oeste 18 Sudoeste 0 -- -- 63
2020-07-01 05:00:00 19.8 13 Sudoeste 19 Sur 0 -- -- 62
2020-07-01 04:00:00 20.9 13 Sudoeste 23 Sur 0 -- -- 57
2020-07-01 03:00:00 21.5 9 Sudoeste 22 Oeste 0 -- -- 54
2020-07-01 02:00:00 22.5 12 Sudoeste 27 Oeste 0 -- -- 49
2020-07-01 01:00:00 23.5 15 Sudoeste 26 Sudoeste 0 -- -- 42
2020-07-01 00:00:00 22.3 12 Sudoeste 19 Sur 0 -- -- 42
2020-06-30 23:00:00 23.8 12 Sur 18 Sur 0 -- -- 37
2020-06-30 22:00:00 27.2 14 Oeste 35 Oeste 0 -- -- 30
2020-06-30 21:00:00 30.2 24 Oeste 43 Sudoeste 0 -- -- 28
2020-06-30 20:00:00 31.6 32 Oeste 42 Sudoeste 0 -- -- 25
2020-06-30 19:00:00 32.3 24 Sudoeste 43 Oeste 0 -- -- 24
2020-06-30 18:00:00 31.7 6 Oeste 32 Oeste 0 -- -- 27
2020-06-30 17:00:00 33.8 15 Oeste 35 Oeste 0 -- -- 25
2020-06-30 16:00:00 33.5 6 Sudoeste 18 Noroeste 0 -- -- 26
2020-06-30 15:00:00 33.6 10 Noroeste 23 Oeste 0 -- -- 28
2020-06-30 14:00:00 32.2 8 Norte 27 Oeste 0 -- -- 29
2020-06-30 13:00:00 33.3 9 Oeste 21 Oeste 0 -- -- 28
2020-06-30 12:00:00 32.2 8 Noroeste 18 Oeste 0 -- -- 31
2020-06-30 11:00:00 29.3 5 Noroeste 10 Noroeste 0 -- -- 38
2020-06-30 10:00:00 25.4 3 Norte 7 Norte 0 -- -- 44
2020-06-30 09:00:00 21 3 Noroeste 8 Oeste 0 -- -- 53
2020-06-30 08:00:00 17.3 0 Calma 7 Sur 0 -- -- 65
2020-06-30 07:00:00 14.6 3 Sur 9 Sur 0 -- -- 71
2020-06-30 06:00:00 14.8 3 Sur 6 Sudeste 0 -- -- 68
2020-06-30 05:00:00 15.4 4 Sur 12 Sur 0 -- -- 67
2020-06-30 04:00:00 15.9 6 Sur 11 Sur 0 -- -- 65
2020-06-30 03:00:00 16.6 3 Sur 9 Sur 0 -- -- 61
2020-06-30 02:00:00 17.5 5 Sur 6 Sur 0 -- -- 59
2020-06-30 01:00:00 19.3 2 Sudeste 8 Nordeste 0 -- -- 55
2020-06-30 00:00:00 20.9 6 Sur 10 Sur 0 -- -- 47
2020-06-29 23:00:00 23.8 2 Norte 10 Noroeste 0 -- -- 43
2020-06-29 22:00:00 26.2 7 Norte 18 Norte 0 -- -- 38
2020-06-29 21:00:00 28.8 11 Norte 23 Noroeste 0 -- -- 33
2020-06-29 20:00:00 30.6 13 Noroeste 30 Noroeste 0 -- -- 29
2020-06-29 19:00:00 31.1 12 Norte 31 Norte 0 -- -- 27
2020-06-29 18:00:00 32.4 16 Noroeste 31 Noroeste 0 -- -- 27
2020-06-29 17:00:00 32.7 9 Oeste 33 Sudoeste 0 -- -- 26
2020-06-29 16:00:00 32.2 9 Oeste 31 Sudoeste 0 -- -- 28
2020-06-29 15:00:00 31.2 12 Oeste 32 Oeste 0 -- -- 33
2020-06-29 14:00:00 30.5 8 Oeste 17 Oeste 0 -- -- 35
2020-06-29 13:00:00 29.3 6 Norte 15 Noroeste 0 -- -- 37
2020-06-29 12:00:00 27.3 6 Norte 14 Noroeste 0 -- -- 44
2020-06-29 11:00:00 25.1 5 Nordeste 10 Norte 0 -- -- 49
2020-06-29 10:00:00 22.8 3 Norte 10 Noroeste 0 -- -- 56
2020-06-29 09:00:00 20.5 4 Noroeste 8 Noroeste 0 -- -- 63
2020-06-29 08:00:00 16.4 0 Calma 6 Sudeste 0 -- -- 75
2020-06-29 07:00:00 13.6 5 Sur 10 Sudoeste 0 -- -- 81
2020-06-29 06:00:00 14.2 5 Sur 10 Sur 0 -- -- 79
2020-06-29 05:00:00 15.4 6 Sur 9 Sudoeste 0 -- -- 75
2020-06-29 04:00:00 16.5 8 Sudoeste 12 Sudoeste 0 -- -- 72
2020-06-29 03:00:00 18.2 9 Sudoeste 16 Oeste 0 -- -- 68
2020-06-29 02:00:00 19.2 9 Oeste 17 Oeste 0 -- -- 63
2020-06-29 01:00:00 19.8 8 Sudoeste 14 Oeste 0 -- -- 61
2020-06-29 00:00:00 20.4 9 Oeste 13 Oeste 0 -- -- 56
2020-06-28 23:00:00 22.1 9 Oeste 12 Oeste 0 -- -- 49
2020-06-28 22:00:00 25 6 Noroeste 20 Oeste 0 -- -- 41
2020-06-28 21:00:00 27.8 12 Oeste 24 Oeste 0 -- -- 34
2020-06-28 20:00:00 28.9 15 Oeste 30 Oeste 0 -- -- 33
2020-06-28 19:00:00 29.8 15 Oeste 33 Oeste 0 -- -- 31
2020-06-28 18:00:00 30.2 9 Oeste 20 Noroeste 0 -- -- 31
2020-06-28 17:00:00 30.3 10 Noroeste 22 Noroeste 0 -- -- 32
2020-06-28 16:00:00 30 8 Noroeste 28 Oeste 0 -- -- 33
2020-06-28 15:00:00 28.9 9 Oeste 24 Oeste 0 -- -- 34
2020-06-28 14:00:00 28.1 4 Norte 19 Norte 0 -- -- 40
2020-06-28 13:00:00 26.9 10 Norte 18 Norte 0 -- -- 44
2020-06-28 12:00:00 25.1 8 Nordeste 14 Norte 0 -- -- 49
2020-06-28 11:00:00 23.4 4 Sudeste 12 Nordeste 0 -- -- 56
2020-06-28 10:00:00 21.6 4 Norte 10 Oeste 0 -- -- 61
2020-06-28 09:00:00 19.5 4 Noroeste 8 Noroeste 0 -- -- 69
2020-06-28 08:00:00 15 3 Sur 7 Sudoeste 0 -- -- 79
2020-06-28 07:00:00 12.4 3 Sur 8 Sur 0 -- -- 85
2020-06-28 06:00:00 13.4 6 Sur 8 Sudoeste 0 -- -- 80
2020-06-28 05:00:00 14.4 5 Sudoeste 12 Sudoeste 0 -- -- 80
2020-06-28 04:00:00 14.9 10 Sudoeste 13 Sur 0 -- -- 75
2020-06-28 03:00:00 16 8 Sur 12 Sudoeste 0 -- -- 72
2020-06-28 02:00:00 16.4 6 Sudoeste 11 Sur 0 -- -- 70
2020-06-28 01:00:00 17.1 8 Sudoeste 12 Sudoeste 0 -- -- 64
2020-06-28 00:00:00 18 8 Sudoeste 10 Sudoeste 0 -- -- 62
2020-06-27 23:00:00 19.5 8 Oeste 16 Oeste 0 -- -- 57
2020-06-27 22:00:00 22.1 11 Oeste 22 Oeste 0 -- -- 51
2020-06-27 21:00:00 24.5 14 Oeste 26 Noroeste 0 -- -- 45
2020-06-27 20:00:00 25.9 16 Oeste 33 Oeste 0 -- -- 41
2020-06-27 19:00:00 26.7 22 Oeste 32 Oeste 0 -- -- 39
2020-06-27 18:00:00 27.2 13 Oeste 33 Oeste 0 -- -- 37
2020-06-27 17:00:00 27.3 14 Noroeste 37 Oeste 0 -- -- 37
2020-06-27 16:00:00 27.3 13 Noroeste 29 Oeste 0 -- -- 36
2020-06-27 15:00:00 25.9 12 Oeste 31 Oeste 0 -- -- 40
2020-06-27 14:00:00 25 12 Oeste 30 Oeste 0 -- -- 44
2020-06-27 13:00:00 24.1 10 Oeste 25 Oeste 0 -- -- 46
2020-06-27 12:00:00 23.1 7 Noroeste 18 Oeste 0 -- -- 51
2020-06-27 11:00:00 21 3 Oeste 14 Oeste 0 -- -- 57
2020-06-27 10:00:00 19.8 5 Noroeste 12 Oeste 0 -- -- 62
2020-06-27 09:00:00 17.7 5 Noroeste 13 Oeste 0 -- -- 70
2020-06-27 08:00:00 14.6 5 Sur 10 Sur 0 -- -- 79
2020-06-27 07:00:00 12.3 8 Sur 10 Sur 0 -- -- 83
2020-06-27 06:00:00 12.3 6 Sudoeste 8 Sudoeste 0 -- -- 80
2020-06-27 05:00:00 13.2 3 Sudoeste 13 Oeste 0 -- -- 76
2020-06-27 04:00:00 14.2 9 Oeste 16 Sudoeste 0 -- -- 74
2020-06-27 03:00:00 15.5 12 Oeste 17 Sudoeste 0 -- -- 69
2020-06-27 02:00:00 16.3 11 Sudoeste 19 Oeste 0 -- -- 64
2020-06-27 01:00:00 16 5 Sudoeste 11 Sudoeste 0 -- -- 61
2020-06-27 00:00:00 17 9 Sudoeste 17 Oeste 0 -- -- 54
2020-06-26 23:00:00 18.7 10 Oeste 17 Oeste 0 -- -- 49
2020-06-26 22:00:00 20.6 9 Oeste 28 Oeste 0 -- -- 43
2020-06-26 21:00:00 23.4 19 Oeste 37 Oeste 0 -- -- 33
2020-06-26 20:00:00 24.8 27 Oeste 40 Oeste 0 -- -- 28
2020-06-26 19:00:00 25.6 26 Oeste 39 Oeste 0 -- -- 30
2020-06-26 18:00:00 27 21 Oeste 45 Oeste 0 -- -- 22
2020-06-26 17:00:00 27.4 27 Oeste 44 Oeste 0 -- -- 23
2020-06-26 16:00:00 27.5 14 Noroeste 36 Oeste 0 -- -- 30
2020-06-26 15:00:00 26.7 9 Oeste 28 Oeste 0 -- -- 34
2020-06-26 14:00:00 26.1 10 Oeste 29 Oeste 0 -- -- 37
2020-06-26 13:00:00 24.2 8 Noroeste 20 Norte 0 -- -- 46
2020-06-26 12:00:00 23.5 9 Noroeste 23 Oeste 0 -- -- 51
2020-06-26 11:00:00 21.9 11 Noroeste 21 Oeste 0 -- -- 56
2020-06-26 10:00:00 20.3 6 Noroeste 13 Noroeste 0 -- -- 60
2020-06-26 09:00:00 16.6 8 Noroeste 12 Noroeste 0 -- -- 68
2020-06-26 08:00:00 14.5 0 Calma 6 Noroeste 0 -- -- 74
2020-06-26 07:00:00 12.1 4 Sur 8 Sudoeste 0 -- -- 75
2020-06-26 06:00:00 12.9 4 Sudoeste 6 Sudoeste 0 -- -- 74
2020-06-26 05:00:00 15.2 6 Sudeste 8 Sudeste 0 -- -- 66
2020-06-26 04:00:00 16.8 6 Sudoeste 14 Sur 0 -- -- 62
2020-06-26 03:00:00 17.3 8 Sur 15 Sudoeste 0 -- -- 61
2020-06-26 02:00:00 18.1 12 Sudoeste 17 Oeste 0 -- -- 58
2020-06-26 01:00:00 18.8 10 Sudoeste 16 Sudoeste 0 -- -- 57
2020-06-26 00:00:00 19.7 11 Sur 15 Sur 0 -- -- 54
2020-06-25 23:00:00 21.7 4 Sudoeste 17 Oeste 0 -- -- 52
2020-06-25 22:00:00 24.9 8 Oeste 16 Oeste 0 -- -- 44
2020-06-25 21:00:00 26.7 4 Este 14 Este 0 -- -- 42
2020-06-25 20:00:00 25.3 9 Este 21 Nordeste 0 -- -- 50
2020-06-25 19:00:00 25 16 Nordeste 25 Nordeste 0 -- -- 51
2020-06-25 18:00:00 26.6 14 Nordeste 23 Nordeste 0 -- -- 45
2020-06-25 17:00:00 28.6 14 Norte 29 Nordeste 0 -- -- 37
2020-06-25 16:00:00 30.8 22 Oeste 38 Norte 0 -- -- 32
2020-06-25 15:00:00 28.1 18 Oeste 36 Oeste 0 -- -- 36
2020-06-25 14:00:00 30.8 8 Nordeste 16 Nordeste 0 -- -- 31
2020-06-25 13:00:00 31.7 5 Sur 18 Sudeste 0 -- -- 30
2020-06-25 12:00:00 29.5 7 Sudeste 19 Sudeste 0 -- -- 34
2020-06-25 11:00:00 28.1 9 Sudeste 23 Sudeste 0 -- -- 36
2020-06-25 10:00:00 25.9 12 Sur 29 Sudeste 0 -- -- 40
2020-06-25 09:00:00 22.1 12 Sur 32 Sudeste 0 -- -- 49
2020-06-25 08:00:00 21.3 17 Sudeste 31 Sudeste 0 -- -- 50
2020-06-25 07:00:00 19.1 15 Sudeste 26 Sudeste 0 -- -- 57
2020-06-25 06:00:00 13.4 2 Sur 7 Sur 0 -- -- 80
2020-06-25 05:00:00 13.8 3 Sur 8 Sur 0 -- -- 77
2020-06-25 04:00:00 15.2 0 Calma 4 Sur 0 -- -- 73
2020-06-25 03:00:00 17.8 0 Calma 16 Este 0 -- -- 63
2020-06-25 02:00:00 19.7 9 Nordeste 24 Nordeste 0 -- -- 55
2020-06-25 01:00:00 19.3 8 Nordeste 15 Nordeste 0 -- -- 60
2020-06-25 00:00:00 19.7 4 Nordeste 11 Nordeste 0 -- -- 57
2020-06-24 23:00:00 21.4 8 Nordeste 17 Este 0 -- -- 51
2020-06-24 22:00:00 24.8 10 Este 21 Sudeste 0 -- -- 39
2020-06-24 21:00:00 26.7 12 Sudeste 24 Sudeste 0 -- -- 36
2020-06-24 20:00:00 28.1 14 Sudeste 23 Sudeste 0 -- -- 33
2020-06-24 19:00:00 28.9 14 Este 24 Este 0 -- -- 32
2020-06-24 18:00:00 28.6 14 Sudeste 28 Sudeste 0 -- -- 33
2020-06-24 17:00:00 28.7 16 Este 37 Sudeste 0 -- -- 34
2020-06-24 16:00:00 30 20 Sudeste 39 Este 0 -- -- 31
2020-06-24 15:00:00 31.4 14 Nordeste 37 Este 0 -- -- 30
2020-06-24 14:00:00 28.5 21 Este 32 Este 0 -- -- 37
2020-06-24 13:00:00 26.3 10 Nordeste 19 Este 0 -- -- 42
2020-06-24 12:00:00 25 14 Sudeste 28 Sudeste 0 -- -- 42
2020-06-24 11:00:00 26.3 16 Sudeste 26 Sudoeste 0 -- -- 40
2020-06-24 10:00:00 22.7 10 Noroeste 27 Sudoeste 0 -- -- 46
2020-06-24 09:00:00 21.1 15 Este 31 Este 0 -- -- 53
2020-06-24 08:00:00 20.4 19 Sudeste 32 Sudeste 0 -- -- 57
2020-06-24 07:00:00 19.4 17 Sudeste 26 Sudeste 0 -- -- 65
2020-06-24 06:00:00 18 7 Sudeste 26 Este 3.4 -- -- 78
2020-06-24 05:00:00 17.8 0 Calma 12 Este 0 -- -- 64
2020-06-24 04:00:00 20.4 9 Sudeste 14 Sudeste 0 -- -- 46
2020-06-24 03:00:00 20.5 7 Este 36 Sudeste 0 -- -- 51
2020-06-24 02:00:00 20.2 4 Sur 10 Sur 0 -- -- 47
2020-06-24 01:00:00 20.5 5 Sur 15 Sur -- -- -- 46
2020-06-24 00:00:00 21.6 5 Sur 20 Sudeste 0 -- -- 43
2020-06-23 23:00:00 24.3 11 Sudeste 23 Sudeste 0 -- -- 35
2020-06-23 22:00:00 24.9 12 Sudeste 25 Este 0 -- -- 39
2020-06-23 21:00:00 24.6 13 Sudeste 60 Oeste 2.2 -- -- 50
2020-06-23 20:00:00 27 9 Norte 26 Nordeste 0 -- -- 36
2020-06-23 19:00:00 28.5 23 Nordeste 45 Nordeste 0 -- -- 31
2020-06-23 18:00:00 33.1 17 Este 26 Este 0 -- -- 23
2020-06-23 17:00:00 33.7 9 Este 27 Este 0 -- -- 20
2020-06-23 16:00:00 32.9 11 Sudeste 33 Sudeste 0 -- -- 22
2020-06-23 15:00:00 35.4 19 Sudeste 35 Este 0 -- -- 21
2020-06-23 14:00:00 34.7 14 Sudeste 31 Sudeste 0 -- -- 21
2020-06-23 13:00:00 34.4 14 Sudeste 30 Sudeste 0 -- -- 21
2020-06-23 12:00:00 33.1 11 Sur 28 Sudeste 0 -- -- 23
2020-06-23 11:00:00 31.1 13 Sudeste 26 Sudeste 0 -- -- 30
2020-06-23 10:00:00 29.1 6 Sudeste 22 Sudeste 0 -- -- 33
2020-06-23 09:00:00 26.8 3 Norte 31 Sudeste 0 -- -- 36
2020-06-23 08:00:00 23.6 18 Sudeste 30 Sudeste 0 -- -- 40
2020-06-23 07:00:00 21.2 12 Sudeste 26 Sudeste 0 -- -- 44
2020-06-23 06:00:00 16.2 2 Sur 10 Sur 0 -- -- 55
2020-06-23 05:00:00 14.4 0 Calma 7 Sur 0 -- -- 59
2020-06-23 04:00:00 14.6 4 Sur 13 Sur 0 -- -- 56
2020-06-23 03:00:00 15.6 4 Sur 10 Sur 0 -- -- 52
2020-06-23 02:00:00 16.3 5 Sur 10 Sur 0 -- -- 50
2020-06-23 01:00:00 17.4 6 Sur 8 Sur 0 -- -- 47
2020-06-23 00:00:00 19.7 4 Sudoeste 6 Sudoeste 0 -- -- 41
2020-06-22 23:00:00 22.5 5 Sudoeste 11 Norte 0 -- -- 36
2020-06-22 22:00:00 26.1 7 Norte 18 Norte 0 -- -- 29
2020-06-22 21:00:00 29.2 15 Norte 27 Norte 0 -- -- 26
2020-06-22 20:00:00 30.8 14 Norte 25 Norte 0 -- -- 24
2020-06-22 19:00:00 31.8 5 Oeste 22 Oeste 0 -- -- 23
2020-06-22 18:00:00 33 7 Sur 22 Este 0 -- -- 22
2020-06-22 17:00:00 33.4 9 Sudeste 46 Nordeste 0 -- -- 22
2020-06-22 16:00:00 32.8 8 Norte 34 Oeste 0 -- -- 24
2020-06-22 15:00:00 32.2 13 Nordeste 24 Nordeste 0 -- -- 25
2020-06-22 14:00:00 31.4 9 Norte 25 Nordeste 0 -- -- 26
2020-06-22 13:00:00 29.8 14 Norte 26 Nordeste 0 -- -- 28
2020-06-22 12:00:00 28.2 13 Nordeste 24 Nordeste 0 -- -- 31
2020-06-22 11:00:00 26.1 6 Norte 12 Norte 0 -- -- 33
2020-06-22 10:00:00 21.9 3 Norte 8 Norte 0 -- -- 47
2020-06-22 09:00:00 18 0 Calma 4 Sur 0 -- -- 57
2020-06-22 08:00:00 13.1 4 Sur 8 Sur 0 -- -- 67
2020-06-22 07:00:00 9.9 4 Sur 7 Sur 0 -- -- 73
2020-06-22 06:00:00 10.7 3 Sur 7 Sudoeste 0 -- -- 66
2020-06-22 05:00:00 12.2 4 Sudoeste 8 Sur 0 -- -- 62
2020-06-22 04:00:00 12.2 4 Oeste 8 Sudoeste 0 -- -- 57
2020-06-22 03:00:00 14.1 6 Sudoeste 13 Sur 0 -- -- 47
2020-06-22 02:00:00 14.5 5 Sudoeste 10 Sudoeste 0 -- -- 47
2020-06-22 01:00:00 15.9 7 Sur 13 Sur -- -- -- 44
2020-06-22 00:00:00 17.1 4 Sur 8 Sudeste 0 -- -- 40
2020-06-21 23:00:00 19.7 2 Sudoeste 8 Norte 0 -- -- 39
2020-06-21 22:00:00 23.8 6 Norte 18 Norte 0 -- -- 31
2020-06-21 21:00:00 26.8 13 Noroeste 25 Noroeste 0 -- -- 27
2020-06-21 20:00:00 28.4 12 Noroeste 22 Noroeste 0 -- -- 24
2020-06-21 19:00:00 29.1 12 Noroeste 27 Oeste 0 -- -- 20
2020-06-21 18:00:00 30.1 14 Noroeste 31 Oeste 0 -- -- 17
2020-06-21 17:00:00 30.1 11 Noroeste 28 Sudoeste -- -- -- 19
2020-06-21 16:00:00 30.1 10 Noroeste 26 Noroeste 0 -- -- 26
2020-06-21 15:00:00 28.7 10 Oeste 30 Nordeste 0 -- -- 30
2020-06-21 14:00:00 28.3 10 Noroeste 22 Oeste 0 -- -- 31
2020-06-21 13:00:00 27 6 Noroeste 17 Noroeste -- -- -- 35
2020-06-21 12:00:00 25.4 8 Noroeste 17 Noroeste 0 -- -- 38
2020-06-21 11:00:00 23.2 6 Norte 14 Norte 0 -- -- 45
2020-06-21 10:00:00 21 5 Noroeste 10 Norte 0 -- -- 50
2020-06-21 09:00:00 18.3 3 Noroeste 7 Noroeste 0 -- -- 57
2020-06-21 08:00:00 14.1 6 Sur 11 Sur 0 -- -- 69
2020-06-21 07:00:00 11.5 7 Sur 11 Sur 0 -- -- 75
2020-06-21 06:00:00 12.3 5 Sur 12 Sur 0 -- -- 69
2020-06-21 05:00:00 13.1 10 Sudoeste 13 Sudoeste 0 -- -- 67
2020-06-21 04:00:00 14.1 8 Sudoeste 11 Sudoeste 0 -- -- 63
2020-06-21 03:00:00 15.2 5 Sudoeste 14 Sur 0 -- -- 55
2020-06-21 02:00:00 16.3 9 Sur 14 Sur 0 -- -- 52
2020-06-21 01:00:00 17.1 5 Sudoeste 15 Sudoeste 0 -- -- 46
2020-06-21 00:00:00 18.1 8 Sudoeste 14 Sudoeste 0 -- -- 42
2020-06-20 23:00:00 19.9 9 Sudoeste 16 Oeste 0 -- -- 39
2020-06-20 22:00:00 23.3 10 Oeste 22 Noroeste 0 -- -- 33
2020-06-20 21:00:00 26.3 15 Oeste 31 Oeste 0 -- -- 29
2020-06-20 20:00:00 28 19 Oeste 33 Oeste 0 -- -- 28
2020-06-20 19:00:00 28.7 18 Oeste 33 Oeste 0 -- -- 26
2020-06-20 18:00:00 29.4 15 Oeste 35 Oeste 0 -- -- 23
2020-06-20 17:00:00 29.4 17 Oeste 38 Oeste 0 -- -- 23
2020-06-20 16:00:00 28.9 14 Oeste 33 Oeste 0 -- -- 24
2020-06-20 15:00:00 27.9 13 Oeste 33 Oeste 0 -- -- 28
2020-06-20 14:00:00 27.2 8 Este 27 Oeste 0 -- -- 30
2020-06-20 13:00:00 26.4 7 Noroeste 19 Oeste 0 -- -- 32
2020-06-20 12:00:00 24.6 7 Nordeste 13 Nordeste 0 -- -- 36
2020-06-20 11:00:00 22.8 5 Nordeste 10 Norte 0 -- -- 40
2020-06-20 10:00:00 20.3 5 Norte 10 Norte 0 -- -- 48
2020-06-20 09:00:00 18.9 4 Norte 9 Norte 0 -- -- 51
2020-06-20 08:00:00 14.5 2 Este 11 Sur 0 -- -- 64
2020-06-20 07:00:00 11.8 8 Sur 13 Sudoeste 0 -- -- 70
2020-06-20 06:00:00 12.2 7 Sur 14 Sudoeste 0 -- -- 68
2020-06-20 05:00:00 12.7 9 Sudoeste 14 Sur 0 -- -- 64
2020-06-20 04:00:00 12.9 8 Sur 15 Sudoeste 0 -- -- 60
2020-06-20 03:00:00 14.3 10 Sudoeste 14 Sudoeste 0 -- -- 53
2020-06-20 02:00:00 14.5 8 Sur 13 Sur 0 -- -- 51
2020-06-20 01:00:00 15.4 9 Sur 13 Sur 0 -- -- 47
2020-06-20 00:00:00 16.2 9 Sudoeste 13 Sudoeste 0 -- -- 42
2020-06-19 23:00:00 17.9 8 Sudoeste 15 Oeste 0 -- -- 35
2020-06-19 22:00:00 20.8 8 Oeste 21 Oeste 0 -- -- 29
2020-06-19 21:00:00 24.1 15 Oeste 28 Oeste 0 -- -- 25
2020-06-19 20:00:00 25.6 16 Noroeste 32 Oeste 0 -- -- 24
2020-06-19 19:00:00 26.3 21 Oeste 34 Oeste 0 -- -- 25
2020-06-19 18:00:00 26.8 15 Oeste 34 Oeste 0 -- -- 26
2020-06-19 17:00:00 26.9 14 Oeste 39 Sudoeste 0 -- -- 27
2020-06-19 16:00:00 26.2 21 Oeste 37 Sudoeste 0 -- -- 29
2020-06-19 15:00:00 25.8 14 Oeste 33 Oeste 0 -- -- 30
2020-06-19 14:00:00 25.7 10 Oeste 29 Oeste 0 -- -- 32
2020-06-19 13:00:00 24 15 Oeste 27 Noroeste 0 -- -- 35
2020-06-19 12:00:00 22.9 9 Oeste 19 Oeste 0 -- -- 38
2020-06-19 11:00:00 22 5 Norte 13 Norte 0 -- -- 40
2020-06-19 10:00:00 19.8 0 Calma 8 Oeste 0 -- -- 44
2020-06-19 09:00:00 17.2 3 Este 8 Este 0 -- -- 52
2020-06-19 08:00:00 12.7 7 Este 10 Este 0 -- -- 66
2020-06-19 07:00:00 9.8 6 Sur 13 Sudoeste 0 -- -- 74
2020-06-19 06:00:00 11.2 9 Sudoeste 15 Sur 0 -- -- 70
2020-06-19 05:00:00 11.4 10 Sur 14 Sur 0 -- -- 68
2020-06-19 04:00:00 12.2 7 Sur 19 Sudoeste 0 -- -- 61
2020-06-19 03:00:00 13.6 16 Oeste 22 Oeste 0 -- -- 55
2020-06-19 02:00:00 13.5 12 Sudoeste 17 Sudoeste 0 -- -- 53
2020-06-19 01:00:00 15.7 9 Sudoeste 11 Sudoeste 0 -- -- 49
2020-06-19 00:00:00 17.3 3 Sudoeste 10 Oeste 0 -- -- 47
2020-06-18 23:00:00 18.5 5 Oeste 15 Oeste 0 -- -- 44
2020-06-18 22:00:00 20.5 8 Oeste 19 Oeste 0 -- -- 39
2020-06-18 21:00:00 22.7 11 Oeste 28 Oeste 0 -- -- 35
2020-06-18 20:00:00 23.6 10 Noroeste 29 Oeste 0 -- -- 33
2020-06-18 19:00:00 24.4 14 Oeste 37 Oeste 0 -- -- 32
2020-06-18 18:00:00 24.5 10 Oeste 31 Oeste 0 -- -- 33
2020-06-18 17:00:00 24.4 12 Oeste 33 Oeste 0 -- -- 34
2020-06-18 16:00:00 24.2 14 Noroeste 33 Oeste 0 -- -- 34
2020-06-18 15:00:00 24.1 13 Oeste 32 Noroeste 0 -- -- 36
2020-06-18 14:00:00 23.1 11 Oeste 28 Oeste 0 -- -- 39
2020-06-18 13:00:00 21.9 9 Noroeste 22 Oeste 0 -- -- 42
2020-06-18 12:00:00 20.9 4 Sur 17 Noroeste 0 -- -- 44
2020-06-18 11:00:00 19.6 8 Noroeste 14 Norte 0 -- -- 48
2020-06-18 10:00:00 16.2 5 Oeste 12 Oeste 0 -- -- 60
2020-06-18 09:00:00 13.8 5 Oeste 9 Sudoeste 0 -- -- 72
2020-06-18 08:00:00 10.1 3 Sur 5 Sur 0 -- -- 79
2020-06-18 07:00:00 7.6 0 Calma 5 Sur 0 -- -- 81
2020-06-18 06:00:00 9.2 2 Sur 9 Oeste 0 -- -- 77
2020-06-18 05:00:00 9.4 7 Sudoeste 13 Sudoeste 0 -- -- 75
2020-06-18 04:00:00 10.9 7 Sudoeste 12 Oeste 0 -- -- 70
2020-06-18 03:00:00 11.8 7 Sudoeste 12 Oeste 0 -- -- 64
2020-06-18 02:00:00 13.3 4 Sudoeste 8 Sudoeste 0 -- -- 57
2020-06-18 01:00:00 14.6 4 Sudoeste 8 Sudoeste -- -- -- 55
2020-06-18 00:00:00 15.6 3 Sur 4 Sur 0 -- -- 53
2020-06-17 23:00:00 16.5 0 Calma 8 Norte 0 -- -- 49
2020-06-17 22:00:00 17.6 7 Noroeste 13 Noroeste 0 -- -- 44
2020-06-17 21:00:00 19.4 9 Oeste 19 Oeste 0 -- -- 38
2020-06-17 20:00:00 20.9 7 Norte 23 Oeste 0 -- -- 35
2020-06-17 19:00:00 21.3 12 Noroeste 31 Oeste 0 -- -- 35
2020-06-17 18:00:00 21.5 8 Noroeste 28 Oeste 0 -- -- 34
2020-06-17 17:00:00 22.5 7 Nordeste 25 Noroeste 0 -- -- 33
2020-06-17 16:00:00 22.8 5 Noroeste 24 Oeste 0 -- -- 34
2020-06-17 15:00:00 20.9 13 Oeste 25 Oeste 0 -- -- 37
2020-06-17 14:00:00 21.2 7 Nordeste 21 Noroeste 0 -- -- 39
2020-06-17 13:00:00 20.6 8 Noroeste 24 Noroeste 0 -- -- 41
2020-06-17 12:00:00 18.3 6 Noroeste 17 Oeste 0 -- -- 49
2020-06-17 11:00:00 16.3 6 Oeste 20 Oeste 0 -- -- 58
2020-06-17 10:00:00 14 12 Oeste 21 Oeste 0 -- -- 66
2020-06-17 09:00:00 12.5 9 Oeste 16 Oeste 0 -- -- 73
2020-06-17 08:00:00 9.6 3 Sudoeste 7 Oeste 0 -- -- 82
2020-06-17 07:00:00 9.8 7 Oeste 14 Oeste 0 -- -- 79
2020-06-17 06:00:00 11 8 Sudoeste 18 Oeste 0 -- -- 76
2020-06-17 05:00:00 11.7 9 Sudoeste 17 Oeste 0 -- -- 73
2020-06-17 04:00:00 12.2 13 Oeste 17 Sudoeste 0 -- -- 71
2020-06-17 03:00:00 12.3 10 Oeste 16 Oeste 0 -- -- 70
2020-06-17 02:00:00 12 2 Sudoeste 9 Oeste 0 -- -- 72
2020-06-17 01:00:00 11.3 7 Sudoeste 14 Sudoeste 0 -- -- 72
2020-06-17 00:00:00 12 10 Sudoeste 15 Oeste 0 -- -- 68
2020-06-16 23:00:00 13.5 11 Oeste 19 Oeste 0 -- -- 61
2020-06-16 22:00:00 16.1 15 Oeste 37 Oeste 0 -- -- 50
2020-06-16 21:00:00 18.6 25 Oeste 48 Oeste 0 -- -- 43
2020-06-16 20:00:00 19.7 27 Oeste 42 Oeste 0 -- -- 44
2020-06-16 19:00:00 19.7 29 Oeste 45 Oeste 0 -- -- 46
2020-06-16 18:00:00 21.3 30 Oeste 45 Oeste 0 -- -- 41
2020-06-16 17:00:00 19.6 25 Oeste 44 Oeste 0.2 -- -- 50
2020-06-16 16:00:00 18.9 26 Oeste 46 Oeste 0 -- -- 58
2020-06-16 15:00:00 20.8 17 Oeste 35 Oeste 0 -- -- 41
2020-06-16 14:00:00 19.9 15 Oeste 31 Oeste 0 -- -- 43
2020-06-16 13:00:00 19.3 15 Oeste 27 Oeste 0 -- -- 45
2020-06-16 12:00:00 18.7 14 Oeste 26 Oeste 0 -- -- 50
2020-06-16 11:00:00 16.6 9 Oeste 21 Oeste 0 -- -- 59
2020-06-16 10:00:00 14 10 Oeste 22 Oeste 0 -- -- 69
2020-06-16 09:00:00 12.1 14 Oeste 20 Sudoeste 0 -- -- 85
2020-06-16 08:00:00 11.2 8 Oeste 11 Oeste 0 -- -- 89
2020-06-16 07:00:00 11.1 4 Oeste 9 Oeste 0 -- -- 89
2020-06-16 06:00:00 11.3 4 Oeste 13 Oeste 0 -- -- 88
2020-06-16 05:00:00 11.8 8 Oeste 13 Oeste 0 -- -- 87
2020-06-16 04:00:00 12.5 4 Oeste 5 Oeste 0.2 -- -- 88
2020-06-16 03:00:00 13.3 3 Oeste 10 Oeste 0 -- -- 80
2020-06-16 02:00:00 13.6 7 Oeste 15 Oeste 0 -- -- 72
2020-06-16 01:00:00 14.1 8 Oeste 21 Oeste 0 -- -- 65
2020-06-16 00:00:00 14.6 14 Oeste 20 Oeste 0 -- -- 63
2020-06-15 23:00:00 15.2 13 Oeste 30 Oeste 0 -- -- 61
2020-06-15 22:00:00 16.9 16 Oeste 32 Oeste 0 -- -- 55
2020-06-15 21:00:00 18.6 19 Oeste 38 Oeste 0 -- -- 49
2020-06-15 20:00:00 20.7 21 Oeste 36 Oeste 0 -- -- 44
2020-06-15 19:00:00 21.6 20 Oeste 38 Oeste 0 -- -- 43
2020-06-15 18:00:00 23 18 Oeste 33 Oeste 0 -- -- 39
2020-06-15 17:00:00 23.3 20 Oeste 35 Oeste 0 -- -- 35
2020-06-15 16:00:00 22.8 15 Oeste 32 Oeste 0 -- -- 39
2020-06-15 15:00:00 22 9 Noroeste 23 Oeste 0 -- -- 43
2020-06-15 14:00:00 20.3 5 Noroeste 25 Oeste 0 -- -- 47
2020-06-15 13:00:00 18.7 6 Noroeste 17 Oeste 0 -- -- 54
2020-06-15 12:00:00 16.7 4 Oeste 14 Oeste 0 -- -- 61
2020-06-15 11:00:00 15.9 4 Oeste 12 Norte 0 -- -- 63
2020-06-15 10:00:00 16.2 5 Norte 11 Noroeste 0 -- -- 63
2020-06-15 09:00:00 13.8 4 Noroeste 10 Oeste 0 -- -- 72
2020-06-15 08:00:00 11.6 6 Oeste 9 Oeste 0 -- -- 79
2020-06-15 07:00:00 11 2 Oeste 9 Oeste 0 -- -- 80
2020-06-15 06:00:00 11.3 4 Oeste 9 Oeste 0 -- -- 78
2020-06-15 05:00:00 11.3 6 Oeste 8 Oeste 0 -- -- 78
2020-06-15 04:00:00 11 3 Sudoeste 6 Sudoeste 0 -- -- 77
2020-06-15 03:00:00 11.2 4 Sudoeste 6 Sur 0 -- -- 75
2020-06-15 02:00:00 11.9 3 Sudoeste 5 Sudoeste 0 -- -- 70
2020-06-15 01:00:00 13 5 Oeste 11 Oeste 0 -- -- 66
2020-06-15 00:00:00 13.7 8 Oeste 11 Oeste 0 -- -- 61
2020-06-14 23:00:00 15 6 Oeste 20 Noroeste 0 -- -- 56
2020-06-14 22:00:00 17.1 9 Oeste 29 Oeste 0 -- -- 49
2020-06-14 21:00:00 18.4 14 Oeste 30 Oeste 0 -- -- 45
2020-06-14 20:00:00 19.8 18 Oeste 33 Oeste 0 -- -- 41
2020-06-14 19:00:00 21.3 17 Oeste 34 Oeste 0 -- -- 38
2020-06-14 18:00:00 21.8 16 Oeste 45 Oeste 0 -- -- 35
2020-06-14 17:00:00 21.9 9 Oeste 35 Oeste 0 -- -- 36
2020-06-14 16:00:00 21.6 18 Oeste 36 Oeste 0 -- -- 37
2020-06-14 15:00:00 20.9 14 Oeste 37 Oeste 0 -- -- 37
2020-06-14 14:00:00 20.3 14 Oeste 31 Oeste 0 -- -- 38
2020-06-14 13:00:00 19.6 10 Noroeste 27 Oeste 0 -- -- 42
2020-06-14 12:00:00 18.8 6 Norte 23 Oeste 0 -- -- 45
2020-06-14 11:00:00 16.7 4 Sudoeste 14 Noroeste 0 -- -- 51
2020-06-14 10:00:00 16.1 6 Norte 15 Noroeste 0 -- -- 53
2020-06-14 09:00:00 12.1 2 Sudoeste 7 Sur 0 -- -- 67
2020-06-14 08:00:00 8.1 2 Sur 9 Sur 0 -- -- 84
2020-06-14 07:00:00 7.8 4 Sur 9 Sudoeste 0 -- -- 83
2020-06-14 06:00:00 8.4 6 Sudoeste 11 Sudoeste 0 -- -- 81
2020-06-14 05:00:00 10.1 4 Sudoeste 10 Sudoeste 0 -- -- 76
2020-06-14 04:00:00 11.4 7 Oeste 15 Oeste 0 -- -- 74
2020-06-14 03:00:00 11.9 8 Oeste 14 Oeste 0 -- -- 72
2020-06-14 02:00:00 11.8 3 Sur 7 Sur 0 -- -- 76
2020-06-14 01:00:00 11.9 5 Sudoeste 11 Sudoeste 0 -- -- 73
2020-06-14 00:00:00 13.4 8 Oeste 10 Oeste 0 -- -- 66
2020-06-13 23:00:00 14.2 4 Oeste 19 Oeste 0 -- -- 62
2020-06-13 22:00:00 15.5 13 Oeste 28 Oeste 0 -- -- 55
2020-06-13 21:00:00 16.7 19 Oeste 32 Oeste 0 -- -- 49
2020-06-13 20:00:00 18.3 21 Oeste 33 Noroeste 0 -- -- 43
2020-06-13 19:00:00 19.3 15 Noroeste 37 Oeste 0 -- -- 43
2020-06-13 18:00:00 20 22 Oeste 38 Oeste 0 -- -- 38
2020-06-13 17:00:00 19.6 11 Oeste 37 Oeste 0 -- -- 38
2020-06-13 16:00:00 18 15 Oeste 31 Oeste 0 -- -- 44
2020-06-13 15:00:00 17.3 13 Oeste 31 Oeste 0 -- -- 45
2020-06-13 14:00:00 17.9 14 Oeste 32 Oeste 0 -- -- 44
2020-06-13 13:00:00 15.7 13 Oeste 33 Sudoeste -- -- -- 52
2020-06-13 12:00:00 14.9 13 Oeste 29 Oeste 0 -- -- 54
2020-06-13 11:00:00 13.4 17 Sudoeste 33 Oeste 0 -- -- 66
2020-06-13 10:00:00 11.6 21 Oeste 31 Oeste 0 -- -- 74
2020-06-13 09:00:00 10.1 22 Sudoeste 32 Sudoeste 0 -- -- 84
2020-06-13 08:00:00 8.5 21 Oeste 28 Sudoeste 0 -- -- 92
2020-06-13 07:00:00 6.5 14 Oeste 18 Oeste 0 -- -- 96
2020-06-13 06:00:00 7 12 Oeste 21 Sudoeste 0 -- -- 93
2020-06-13 05:00:00 7.6 10 Sudoeste 28 Sudoeste 0 -- -- 92
2020-06-13 04:00:00 8.2 7 Sudoeste 20 Sudoeste 0 -- -- 91
2020-06-13 03:00:00 8.5 8 Sudoeste 20 Oeste 0 -- -- 90
2020-06-13 02:00:00 9.3 10 Sudoeste 21 Sudoeste 0 -- -- 87
2020-06-13 01:00:00 9.5 12 Sudoeste 34 Oeste 0 -- -- 87
2020-06-13 00:00:00 9.6 16 Sudoeste 26 Sudoeste 0.2 -- -- 89
2020-06-12 23:00:00 9.8 7 Sudoeste 17 Sur 0 -- -- 88
2020-06-12 22:00:00 10.3 9 Sudoeste 23 Oeste 0 -- -- 85
2020-06-12 21:00:00 10.3 11 Sudoeste 24 Sudoeste 0.8 -- -- 89
2020-06-12 20:00:00 10 15 Sudoeste 42 Sudoeste 0.6 -- -- 88
2020-06-12 19:00:00 10.5 15 Sudoeste 49 Sudoeste 0.2 -- -- 85
2020-06-12 18:00:00 14.5 28 Sudoeste 53 Oeste 0 -- -- 62
2020-06-12 17:00:00 15.4 21 Sudoeste 54 Oeste 0 -- -- 63
2020-06-12 16:00:00 16 31 Sudoeste 51 Sudoeste 0 -- -- 52
2020-06-12 15:00:00 15.2 24 Sudoeste 48 Sudoeste 0 -- -- 55
2020-06-12 14:00:00 14.4 33 Oeste 46 Oeste 0 -- -- 56
2020-06-12 13:00:00 13.9 27 Oeste 42 Sudoeste 0 -- -- 57
2020-06-12 12:00:00 12.8 29 Oeste 42 Oeste 0 -- -- 61
2020-06-12 11:00:00 12.2 27 Sudoeste 51 Oeste 0 -- -- 64
2020-06-12 10:00:00 11.5 30 Oeste 51 Sudoeste 0 -- -- 65
2020-06-12 09:00:00 11.2 31 Oeste 45 Sudoeste 0 -- -- 67
2020-06-12 08:00:00 9.3 19 Sudoeste 37 Oeste 0 -- -- 71
2020-06-12 07:00:00 7.8 18 Sudoeste 33 Sudoeste 0 -- -- 74
2020-06-12 06:00:00 6.6 11 Sudoeste 27 Sur 0 -- -- 79
2020-06-12 05:00:00 6.6 8 Sudoeste 20 Sudoeste 0 -- -- 79
2020-06-12 04:00:00 6.3 7 Sudoeste 13 Sur 0 -- -- 80
2020-06-12 03:00:00 7 10 Sur 19 Sur 0 -- -- 77
2020-06-12 02:00:00 8.2 9 Sudoeste 37 Sudoeste 0 -- -- 72
2020-06-12 01:00:00 9.1 19 Sudoeste 43 Sudoeste 0 -- -- 66
2020-06-12 00:00:00 10.7 26 Oeste 41 Oeste 0 -- -- 61
2020-06-11 23:00:00 11.3 21 Oeste 45 Oeste 0 -- -- 59
2020-06-11 22:00:00 13.6 33 Oeste 55 Sudoeste 0 -- -- 60
2020-06-11 21:00:00 15.3 29 Sudoeste 56 Sudoeste 0 -- -- 47
2020-06-11 20:00:00 16.9 40 Sudoeste 57 Oeste 0 -- -- 47
2020-06-11 19:00:00 18.1 34 Oeste 53 Oeste 0 -- -- 45
2020-06-11 18:00:00 18.7 27 Sudoeste 53 Sudoeste 0 -- -- 51
2020-06-11 17:00:00 20.3 37 Oeste 52 Sudoeste 0 -- -- 42
2020-06-11 16:00:00 19.5 29 Sudoeste 49 Oeste 0 -- -- 39
2020-06-11 15:00:00 19.7 29 Sudoeste 53 Sudoeste 0 -- -- 41
2020-06-11 14:00:00 18.1 30 Oeste 48 Sudoeste 0 -- -- 49
2020-06-11 13:00:00 16.9 26 Sudoeste 41 Sudoeste 0 -- -- 56
2020-06-11 12:00:00 14.7 28 Sudoeste 51 Oeste 0 -- -- 60
2020-06-11 11:00:00 15.1 29 Oeste 42 Sudoeste 0 -- -- 58
2020-06-11 10:00:00 14.1 28 Oeste 37 Oeste 0 -- -- 64
2020-06-11 09:00:00 13.2 26 Oeste 33 Oeste 0 -- -- 69
2020-06-11 08:00:00 12.2 6 Sudoeste 14 Sur 0 -- -- 72
2020-06-11 07:00:00 9.8 9 Sur 13 Sur 0 -- -- 78
2020-06-11 06:00:00 11.5 7 Sudoeste 14 Sur 0 -- -- 72
2020-06-11 05:00:00 12.4 8 Sudoeste 19 Sudoeste 0 -- -- 68
2020-06-11 04:00:00 13.4 10 Sudoeste 19 Sudoeste 0 -- -- 65
2020-06-11 03:00:00 14.1 12 Sudoeste 25 Sudoeste 0 -- -- 64
2020-06-11 02:00:00 14.2 9 Sudoeste 17 Oeste 0 -- -- 59
2020-06-11 01:00:00 15 11 Sudoeste 19 Sudoeste 0 -- -- 51
2020-06-11 00:00:00 15.6 10 Sudoeste 16 Oeste 0 -- -- 44
2020-06-10 23:00:00 18.5 7 Sudoeste 13 Sudoeste 0 -- -- 38
2020-06-10 22:00:00 19.9 7 Sudoeste 29 Sudoeste 0 -- -- 36
2020-06-10 21:00:00 21.3 14 Sudoeste 32 Oeste 0 -- -- 34
2020-06-10 20:00:00 22.3 19 Oeste 32 Oeste 0 -- -- 35
2020-06-10 19:00:00 22.7 18 Oeste 32 Oeste 0 -- -- 32
2020-06-10 18:00:00 23 15 Oeste 35 Oeste 0 -- -- 31
2020-06-10 17:00:00 23.9 11 Oeste 31 Sudoeste 0 -- -- 29
2020-06-10 16:00:00 24.3 12 Noroeste 36 Oeste 0 -- -- 28
2020-06-10 15:00:00 23.6 15 Oeste 35 Oeste 0 -- -- 29
2020-06-10 14:00:00 23.1 16 Oeste 30 Oeste 0 -- -- 30
2020-06-10 13:00:00 21.3 12 Sudoeste 33 Sudoeste 0 -- -- 33
2020-06-10 12:00:00 21.3 6 Noroeste 22 Norte 0 -- -- 34
2020-06-10 11:00:00 20.2 6 Norte 13 Noroeste 0 -- -- 36
2020-06-10 10:00:00 16.5 4 Este 9 Este 0 -- -- 47
2020-06-10 09:00:00 11.3 0 Calma 9 Sudeste 0 -- -- 66
2020-06-10 08:00:00 8.2 6 Sudeste 10 Este 0 -- -- 77
2020-06-10 07:00:00 4.9 3 Sudeste 6 Este 0 -- -- 83
2020-06-10 06:00:00 5.1 2 Nordeste 3 Nordeste 0 -- -- 83
2020-06-10 05:00:00 6.7 0 Calma 10 Sudeste 0 -- -- 76
2020-06-10 04:00:00 7 0 Calma 5 Sur 0 -- -- 75
2020-06-10 03:00:00 7.6 0 Calma 6 Sudeste 0 -- -- 71
2020-06-10 02:00:00 9.2 3 Sudeste 12 Sudeste 0 -- -- 66
2020-06-10 01:00:00 9.7 9 Este 17 Nordeste 0 -- -- 64
2020-06-10 00:00:00 11.3 7 Nordeste 17 Nordeste 0 -- -- 59
2020-06-09 23:00:00 12.5 0 Calma 6 Norte 0 -- -- 53
2020-06-09 22:00:00 13.9 6 Norte 15 Norte 0 -- -- 48
2020-06-09 21:00:00 16.2 8 Norte 23 Noroeste 0 -- -- 41
2020-06-09 20:00:00 17.9 11 Noroeste 25 Noroeste 0 -- -- 37
2020-06-09 19:00:00 18.4 11 Noroeste 22 Norte 0 -- -- 35
2020-06-09 18:00:00 19.1 13 Norte 28 Noroeste 0 -- -- 35
2020-06-09 17:00:00 19.7 11 Noroeste 30 Oeste 0 -- -- 36
2020-06-09 16:00:00 19.9 8 Noroeste 29 Noroeste 0 -- -- 37
2020-06-09 15:00:00 20.1 11 Noroeste 27 Norte 0 -- -- 35
2020-06-09 14:00:00 19.9 15 Noroeste 31 Noroeste 0 -- -- 37
2020-06-09 13:00:00 18.5 13 Norte 22 Norte 0 -- -- 40
2020-06-09 12:00:00 16.9 8 Norte 18 Nordeste 0 -- -- 43
2020-06-09 11:00:00 14.9 8 Norte 15 Nordeste 0 -- -- 47
2020-06-09 10:00:00 12.7 6 Norte 10 Nordeste 0 -- -- 58
2020-06-09 09:00:00 10.8 5 Noroeste 9 Norte 0 -- -- 69
2020-06-09 08:00:00 6.2 0 Calma 8 Sur 0 -- -- 86
2020-06-09 07:00:00 3.4 4 Sur 8 Sur 0 -- -- 91
2020-06-09 06:00:00 3.6 6 Sur 9 Sur 0 -- -- 90
2020-06-09 05:00:00 4.1 4 Sur 9 Sur 0 -- -- 88
2020-06-09 04:00:00 5.7 0 Calma 13 Norte 0 -- -- 83
2020-06-09 03:00:00 6.1 3 Noroeste 4 Noroeste 0 -- -- 81
2020-06-09 02:00:00 8 2 Nordeste 10 Norte 0 -- -- 76
2020-06-09 01:00:00 9.5 8 Norte 25 Norte 0 -- -- 72
2020-06-09 00:00:00 10.8 13 Norte 25 Norte 0 -- -- 70